Time;durP1;ratioP1;P1;durP2;ratioP2;P2;SDS_P1;SDS_P2;PMS_P1;PMS_P2;Temp;Humidity;BMP_temperature;BMP_pressure;BME280_temperature;BME280_humidity;BME280_pressure;Samples;Min_cycle;Max_cycle;Signal;HPM_P1;HPM_P2
2022/08/13 00:00:09;;;;;;;;;13.67;13.67;;;;;23.36;39.95;100841.28;5082531;28;45350;-76
2022/08/13 00:02:36;;;;;;;;;13.00;12.33;;;;;23.39;40.15;100843.50;5082244;28;45322;-77
2022/08/13 00:05:05;;;;;;;;;12.00;12.00;;;;;23.39;39.11;100847.03;5082402;28;45329;-77
2022/08/13 00:07:31;;;;;;;;;13.33;13.33;;;;;23.30;39.41;100833.09;5083931;28;45488;-76
2022/08/13 00:09:59;;;;;;;;;13.00;13.00;;;;;23.32;39.07;100841.78;5082081;28;45290;-77
2022/08/13 00:15:26;;;;;;;;;11.00;11.00;;;;;23.39;38.71;100852.47;5082405;28;45276;-76
2022/08/13 00:17:52;;;;;;;;;11.33;11.33;;;;;23.41;38.31;100844.88;5082237;27;47183;-76
2022/08/13 00:20:19;;;;;;;;;12.33;12.33;;;;;23.42;38.48;100840.28;5080302;27;46156;-77
2022/08/13 00:22:48;;;;;;;;;11.00;10.00;;;;;23.45;38.59;100848.72;5074028;28;45218;-76
2022/08/13 00:25:14;;;;;;;;;10.67;10.67;;;;;23.45;38.34;100845.19;5082142;28;45437;-76
2022/08/13 00:27:44;;;;;;;;;10.67;10.67;;;;;23.45;37.51;100834.34;5082136;28;45346;-76
2022/08/13 00:30:15;;;;;;;;;13.33;13.33;;;;;23.52;38.14;100840.34;5081923;28;45282;-76
2022/08/13 00:32:43;;;;;;;;;9.00;9.00;;;;;23.56;37.76;100846.88;5081919;28;45318;-77
2022/08/13 00:35:08;;;;;;;;;11.00;11.00;;;;;23.57;37.99;100845.00;5080646;28;45318;-77
2022/08/13 00:37:37;;;;;;;;;8.33;8.00;;;;;23.50;37.83;100837.09;5081443;28;45292;-77
2022/08/13 00:40:06;;;;;;;;;10.00;10.00;;;;;23.51;37.83;100848.75;5088124;27;47975;-77
2022/08/13 00:42:32;;;;;;;;;11.00;11.00;;;;;23.53;37.69;100847.44;5081628;28;45329;-77
2022/08/13 00:44:58;;;;;;;;;8.00;8.00;;;;;23.50;37.81;100847.13;5080427;28;45272;-77
2022/08/13 00:50:12;;;;;;;;;9.67;9.67;;;;;23.41;37.32;100844.88;5081562;28;45460;-76
2022/08/13 00:52:40;;;;;;;;;9.33;9.33;;;;;23.44;37.48;100848.97;5081016;28;45367;-76
2022/08/13 00:55:12;;;;;;;;;8.00;8.00;;;;;23.43;37.78;100850.03;5080825;28;45376;-76
2022/08/13 00:57:38;;;;;;;;;11.00;10.67;;;;;23.43;37.94;100841.91;5092475;27;45961;-77
2022/08/13 01:00:11;;;;;;;;;9.00;8.33;;;;;23.41;38.07;100850.28;5076785;28;46966;-77
2022/08/13 01:02:37;;;;;;;;;8.00;8.00;;;;;23.37;37.64;100849.19;5075996;28;45454;-77
2022/08/13 01:05:03;;;;;;;;;7.67;7.67;;;;;23.31;37.77;100848.28;5081551;28;45304;-77
2022/08/13 01:07:30;;;;;;;;;9.67;9.33;;;;;23.32;38.14;100846.41;5081162;28;45275;-76
2022/08/13 01:09:55;;;;;;;;;7.67;7.67;;;;;23.25;37.81;100841.19;5095615;27;47274;-77
2022/08/13 01:12:23;;;;;;;;;11.67;10.67;;;;;23.24;38.07;100850.41;5079750;28;45315;-76
2022/08/13 01:14:52;;;;;;;;;10.00;9.00;;;;;23.14;38.07;100837.59;5081358;28;45321;-76
2022/08/13 01:17:22;;;;;;;;;9.67;9.33;;;;;23.06;38.56;100849.69;5085859;27;45329;-76
2022/08/13 01:19:50;;;;;;;;;10.33;8.33;;;;;22.98;38.14;100852.06;5081073;28;46105;-76
2022/08/13 01:22:16;;;;;;;;;6.33;6.33;;;;;22.88;38.19;100845.44;5081147;28;45241;-76
2022/08/13 01:24:42;;;;;;;;;10.00;10.00;;;;;22.81;38.61;100842.94;5081225;28;45357;-75
2022/08/13 01:27:09;;;;;;;;;8.33;8.33;;;;;22.78;38.24;100843.44;5081338;28;45307;-76
2022/08/13 01:29:36;;;;;;;;;9.00;9.00;;;;;22.75;38.52;100840.44;5080920;28;45291;-77
2022/08/13 01:32:03;;;;;;;;;9.67;9.67;;;;;22.75;38.19;100837.72;5095284;27;45338;-76
2022/08/13 01:34:30;;;;;;;;;9.67;9.67;;;;;22.81;37.93;100848.34;5080890;28;45290;-77
2022/08/13 01:36:56;;;;;;;;;8.67;8.67;;;;;22.75;38.46;100830.44;5080734;28;45349;-76
2022/08/13 01:39:22;;;;;;;;;8.67;8.00;;;;;22.78;38.35;100840.72;5080395;28;45328;-76
2022/08/13 01:41:48;;;;;;;;;11.67;11.67;;;;;22.76;38.67;100844.78;5080939;28;45298;-76
2022/08/13 01:44:15;;;;;;;;;8.33;8.33;;;;;22.69;38.83;100840.38;5080838;28;45237;-76
2022/08/13 01:52:12;;;;;;;;;8.67;8.67;;;;;22.49;38.82;100835.50;5061465;28;45508;-76
2022/08/13 01:54:38;;;;;;;;;8.33;8.33;;;;;22.48;39.14;100833.88;5080309;28;45275;-76
2022/08/13 01:57:06;;;;;;;;;9.00;9.00;;;;;22.44;39.51;100843.56;5080700;28;45267;-76
2022/08/13 01:59:34;;;;;;;;;8.00;8.00;;;;;22.37;38.76;100842.94;5080370;28;46738;-76
2022/08/13 02:02:01;;;;;;;;;10.33;10.33;;;;;22.32;39.01;100835.56;5080536;28;45291;-76
2022/08/13 02:04:26;;;;;;;;;9.00;9.00;;;;;22.21;39.08;100829.22;5080428;28;45223;-76
2022/08/13 02:06:52;;;;;;;;;9.00;9.00;;;;;22.17;39.50;100836.19;5079065;28;45213;-76
2022/08/13 02:09:18;;;;;;;;;9.33;9.33;;;;;22.14;39.77;100840.22;5075583;28;48455;-76
2022/08/13 02:11:43;;;;;;;;;9.00;8.33;;;;;22.09;39.40;100842.03;5079575;28;45200;-76
2022/08/13 02:14:09;;;;;;;;;9.67;9.67;;;;;22.07;39.48;100836.88;5080602;28;45264;-76
2022/08/13 02:16:36;;;;;;;;;8.33;8.33;;;;;21.98;39.85;100838.34;5085028;27;45345;-76
2022/08/13 02:19:07;;;;;;;;;8.00;8.00;;;;;21.99;40.07;100838.13;5085430;27;47468;-76
2022/08/13 02:21:37;;;;;;;;;10.67;10.00;;;;;21.97;40.12;100842.16;5078567;28;45457;-76
2022/08/13 02:24:08;;;;;;;;;9.33;8.67;;;;;21.99;40.07;100851.63;5080264;28;45325;-76
2022/08/13 02:26:34;;;;;;;;;10.00;9.67;;;;;21.95;39.79;100842.38;5080013;28;45356;-76
2022/08/13 02:29:03;;;;;;;;;9.00;9.00;;;;;22.01;39.66;100856.81;5082817;27;47201;-76
2022/08/13 02:31:28;;;;;;;;;9.00;9.00;;;;;21.94;40.31;100849.69;5078573;28;45324;-75
2022/08/13 02:33:54;;;;;;;;;8.33;8.33;;;;;21.93;40.36;100853.47;5078721;28;45402;-76
2022/08/13 02:36:22;;;;;;;;;10.00;10.00;;;;;21.91;39.97;100852.06;5083646;27;47478;-76
2022/08/13 02:39:04;;;;;;;;;9.00;9.00;;;;;21.91;40.16;100852.06;5079852;28;46274;-76
2022/08/13 02:41:38;;;;;;;;;9.00;9.00;;;;;21.90;39.94;100845.84;5078449;28;46149;-75
2022/08/13 02:44:13;;;;;;;;;9.33;9.00;;;;;21.91;39.97;100852.06;5079851;28;45365;-76
2022/08/13 02:46:49;;;;;;;;;8.00;8.00;;;;;21.89;39.76;100844.22;5079859;28;45350;-76
2022/08/13 02:49:15;;;;;;;;;8.67;8.33;;;;;21.88;40.13;100856.06;5079472;28;46506;-77
2022/08/13 02:51:42;;;;;;;;;9.67;9.67;;;;;21.81;40.31;100841.91;5078281;28;45612;-76
2022/08/13 02:54:07;;;;;;;;;8.67;8.67;;;;;21.83;40.44;100850.59;5079559;28;45281;-77
2022/08/13 02:56:34;;;;;;;;;9.00;9.00;;;;;21.80;40.47;100846.53;5079612;28;45536;-76
2022/08/13 02:59:00;;;;;;;;;10.00;10.00;;;;;21.75;40.20;100849.13;5079720;28;45574;-76
2022/08/13 03:01:26;;;;;;;;;12.33;10.67;;;;;21.71;40.77;100856.06;5079313;28;45231;-76
2022/08/13 03:03:55;;;;;;;;;10.00;10.00;;;;;21.67;40.42;100847.63;5079953;28;45377;-76
2022/08/13 03:06:21;;;;;;;;;10.67;10.67;;;;;21.60;41.04;100846.16;5079213;28;45557;-76
2022/08/13 03:08:51;;;;;;;;;10.67;10.67;;;;;21.59;41.17;100847.22;5079381;28;45257;-76
2022/08/13 03:11:17;;;;;;;;;9.00;9.00;;;;;21.56;40.95;100846.66;5079289;28;45497;-76
2022/08/13 03:14:03;;;;;;;;;9.67;9.67;;;;;21.54;41.13;100842.53;5079256;28;45304;-76
2022/08/13 03:16:28;;;;;;;;;10.67;10.00;;;;;21.46;41.03;100832.16;5083827;27;45457;-75
2022/08/13 03:18:57;;;;;;;;;10.00;10.00;;;;;21.44;41.34;100838.63;5083267;27;48003;-76
2022/08/13 03:21:23;;;;;;;;;9.33;9.33;;;;;;;;5079147;28;45233;-77
2022/08/13 03:23:50;;;;;;;;;10.33;10.33;;;;;21.45;41.36;100839.44;5079296;28;45252;-76
2022/08/13 03:26:16;;;;;;;;;11.00;11.00;;;;;21.41;41.48;100835.59;5088086;27;46438;-76
2022/08/13 03:28:41;;;;;;;;;8.00;8.00;;;;;21.35;41.78;100823.88;5078813;28;45410;-76
2022/08/13 03:31:07;;;;;;;;;10.67;10.00;;;;;21.39;41.80;100830.44;5085833;27;46018;-76
2022/08/13 03:33:32;;;;;;;;;11.00;11.00;;;;;21.34;42.25;100832.22;5079298;27;45756;-76
2022/08/13 03:35:58;;;;;;;;;10.67;10.67;;;;;21.27;41.78;100829.66;5078721;28;45590;-76
2022/08/13 03:38:24;;;;;;;;;10.00;10.00;;;;;21.18;42.15;100823.84;5079059;28;45389;-76
2022/08/13 03:41:02;;;;;;;;;11.33;10.67;;;;;21.15;42.38;100835.13;5091715;27;45554;-76
2022/08/13 03:43:30;;;;;;;;;14.00;11.00;;;;;21.08;42.72;100831.78;5079366;28;45318;-76
2022/08/13 03:45:57;;;;;;;;;12.33;12.33;;;;;21.04;42.75;100834.16;5078874;28;45484;-76
2022/08/13 03:48:24;;;;;;;;;14.33;14.00;;;;;21.05;42.81;100839.31;5078918;28;47232;-76
2022/08/13 03:50:50;;;;;;;;;9.00;9.00;;;;;21.01;42.59;100834.63;5078720;28;45381;-76
2022/08/13 03:53:17;;;;;;;;;10.00;10.00;;;;;21.01;42.33;100832.75;5081746;27;45526;-76
2022/08/13 03:55:43;;;;;;;;;10.33;10.33;;;;;21.05;42.55;100838.50;5077484;28;46211;-76
2022/08/13 03:58:10;;;;;;;;;10.00;9.33;;;;;21.01;42.83;100834.63;5078800;28;46347;-76
2022/08/13 04:00:47;;;;;;;;;9.00;9.00;;;;;21.04;42.92;100837.66;5074252;28;45499;-76
2022/08/13 04:03:19;;;;;;;;;11.00;10.00;;;;;21.05;42.66;100847.44;5078183;28;45377;-76
2022/08/13 04:05:46;;;;;;;;;10.00;10.00;;;;;21.05;42.68;100839.31;5078489;28;45652;-76
2022/08/13 04:08:11;;;;;;;;;8.67;8.33;;;;;21.05;42.86;100833.09;5078551;28;46576;-76
2022/08/13 04:10:37;;;;;;;;;10.67;9.33;;;;;21.05;42.34;100841.19;5078561;28;45387;-76
2022/08/13 04:13:04;;;;;;;;;7.67;7.67;;;;;21.08;42.03;100840.72;5078846;28;45424;-76
2022/08/13 04:15:30;;;;;;;;;10.67;10.33;;;;;21.09;42.10;100846.91;5077549;28;46154;-76
2022/08/13 04:17:55;;;;;;;;;11.33;11.33;;;;;21.03;42.37;100832.50;5093466;27;46210;-76
2022/08/13 04:20:21;;;;;;;;;9.67;9.67;;;;;21.01;42.68;100830.03;5078851;28;45302;-76
2022/08/13 04:22:47;;;;;;;;;10.00;10.00;;;;;21.00;42.76;100839.22;5078531;28;45283;-77
2022/08/13 04:25:12;;;;;;;;;6.33;6.33;;;;;21.00;42.46;100831.09;5078382;28;45411;-77
2022/08/13 04:27:38;;;;;;;;;10.33;10.33;;;;;21.03;42.47;100832.50;5077256;28;46561;-76
2022/08/13 04:30:04;;;;;;;;;9.33;9.33;;;;;21.04;42.27;100842.25;5080618;28;45247;-76
2022/08/13 04:32:39;;;;;;;;;10.00;10.00;;;;;21.01;42.90;100842.75;5084890;27;45330;-77
2022/08/13 04:35:05;;;;;;;;;10.00;10.00;;;;;20.99;42.46;100837.59;5081995;28;45319;-75
2022/08/13 04:37:31;;;;;;;;;7.67;7.67;;;;;20.97;42.65;100845.09;5081561;28;46215;-76
2022/08/13 04:39:57;;;;;;;;;11.00;10.33;;;;;20.97;42.65;100845.09;5082146;28;45401;-76
2022/08/13 04:42:22;;;;;;;;;9.67;9.67;;;;;20.95;42.55;100847.22;5082762;28;45353;-76
2022/08/13 04:44:48;;;;;;;;;10.00;10.00;;;;;20.93;43.00;100846.66;5082279;28;45598;-77
2022/08/13 04:47:13;;;;;;;;;11.00;10.00;;;;;20.91;43.11;100846.06;5082058;28;46401;-77
2022/08/13 04:49:38;;;;;;;;;10.00;10.00;;;;;20.88;43.47;100847.34;5081752;28;45377;-77
2022/08/13 04:52:04;;;;;;;;;19.33;16.33;;;;;20.86;43.63;100851.34;5081604;28;45507;-76
2022/08/13 04:54:29;;;;;;;;;15.00;15.00;;;;;20.83;43.53;100849.13;5081355;28;45448;-76
2022/08/13 04:56:55;;;;;;;;;14.33;13.00;;;;;20.80;43.37;100848.53;5086734;27;47364;-77
2022/08/13 04:59:22;;;;;;;;;11.33;11.33;;;;;20.79;43.71;100849.59;5081209;28;45522;-76
2022/08/13 05:01:47;;;;;;;;;13.33;13.33;;;;;20.77;43.68;100853.63;5071381;28;45371;-77
2022/08/13 05:04:13;;;;;;;;;12.00;12.00;;;;;20.74;43.72;100846.00;5069734;28;45344;-77
2022/08/13 05:06:38;;;;;;;;;9.33;9.33;;;;;20.72;43.52;100842.69;5084413;27;48255;-73
2022/08/13 05:09:03;;;;;;;;;9.00;9.00;;;;;20.72;44.00;100846.22;5081515;28;45306;-73
2022/08/13 05:11:29;;;;;;;;;10.00;9.00;;;;;20.74;43.71;100846.78;5081188;28;45244;-74
2022/08/13 05:13:54;;;;;;;;;10.00;9.67;;;;;20.74;43.41;100849.50;5072184;28;45173;-73
2022/08/13 05:16:20;;;;;;;;;11.00;10.67;;;;;20.71;43.62;100849.16;5087377;27;47128;-73
2022/08/13 05:18:53;;;;;;;;;12.00;12.00;;;;;20.72;43.75;100858.91;5088857;27;45262;-73
2022/08/13 05:21:22;;;;;;;;;11.33;11.33;;;;;20.73;44.26;100864.06;5081860;28;45323;-73
2022/08/13 05:23:53;;;;;;;;;10.00;10.00;;;;;20.70;44.22;100869.94;5093635;27;45341;-74
2022/08/13 05:26:24;;;;;;;;;11.67;11.67;;;;;20.72;44.38;100875.94;5080059;28;48432;-74
2022/08/13 05:28:50;;;;;;;;;11.00;11.00;;;;;20.67;45.02;100863.16;5081892;28;45307;-74
2022/08/13 05:31:19;;;;;;;;;11.00;11.00;;;;;20.68;44.49;100863.94;5081572;28;45324;-73
2022/08/13 05:33:45;;;;;;;;;11.67;11.67;;;;;20.71;45.04;100868.06;5081075;28;45368;-72
2022/08/13 05:36:11;;;;;;;;;11.00;11.00;;;;;20.78;45.08;100876.84;5082977;27;45939;-72
2022/08/13 05:38:37;;;;;;;;;10.00;10.00;;;;;20.81;45.18;100879.06;5080915;28;45445;-73
2022/08/13 05:41:06;;;;;;;;;10.00;10.00;;;;;20.86;45.17;100872.97;5079469;28;45382;-73
2022/08/13 05:43:34;;;;;;;;;9.00;9.00;;;;;20.80;45.15;100869.34;5078266;28;46949;-73
2022/08/13 05:46:03;;;;;;;;;11.67;11.00;;;;;20.86;44.92;100872.97;5079330;27;45903;-73
2022/08/13 05:48:32;;;;;;;;;10.67;10.67;;;;;20.87;45.37;100877.28;5076639;28;45411;-72
2022/08/13 05:50:59;;;;;;;;;9.33;9.33;;;;;20.86;45.55;100864.84;5066758;28;45350;-72
2022/08/13 05:53:26;;;;;;;;;9.33;9.33;;;;;20.89;45.70;100875.97;5079081;28;45322;-72
2022/08/13 05:55:53;;;;;;;;;12.00;11.00;;;;;20.92;45.63;100863.94;5069574;27;47216;-72
2022/08/13 05:58:20;;;;;;;;;11.00;10.00;;;;;20.97;45.13;100865.88;5075334;28;45335;-73
2022/08/13 06:03:31;;;;;;;;;11.00;9.67;;;;;21.00;44.84;100850.03;5075820;28;45303;-73
2022/08/13 06:06:00;;;;;;;;;9.00;9.00;;;;;21.07;44.37;100857.97;5076743;28;45249;-72
2022/08/13 06:08:29;;;;;;;;;10.00;10.00;;;;;21.10;45.07;100859.38;5066245;28;45321;-72
2022/08/13 06:10:59;;;;;;;;;11.33;11.00;;;;;21.17;45.14;100863.59;5079107;28;45316;-73
2022/08/13 06:13:26;;;;;;;;;9.00;9.00;;;;;21.26;44.70;100864.00;5080355;28;45425;-73
2022/08/13 06:15:58;;;;;;;;;9.67;9.67;;;;;21.33;44.55;100868.44;5080865;27;47598;-72
2022/08/13 06:18:29;;;;;;;;;10.00;10.00;;;;;21.37;44.22;100858.78;5084852;27;45402;-72
2022/08/13 06:20:55;;;;;;;;;9.00;8.00;;;;;;;;5069208;28;45421;-72
2022/08/13 06:23:23;;;;;;;;;8.00;8.00;;;;;21.52;43.85;100859.00;5059489;28;45503;-72
2022/08/13 06:25:51;;;;;;;;;12.33;11.00;;;;;21.61;43.69;100866.72;5059126;28;46223;-72
2022/08/13 06:28:19;;;;;;;;;11.67;11.33;;;;;21.65;43.59;100860.59;5059327;28;45487;-72
2022/08/13 06:30:45;;;;;;;;;9.67;9.67;;;;;21.72;43.41;100868.53;5076871;28;45316;-72
2022/08/13 06:33:12;;;;;;;;;8.67;8.67;;;;;21.84;43.82;100871.16;5079129;28;45424;-72
2022/08/13 06:35:37;;;;;;;;;10.00;9.67;;;;;21.94;42.96;100870.53;5060831;28;48175;-73
2022/08/13 06:38:06;;;;;;;;;10.00;10.00;;;;;22.04;42.66;100875.25;5058973;28;45721;-72
2022/08/13 06:40:35;;;;;;;;;10.33;9.00;;;;;22.13;43.21;100872.94;5059511;28;45352;-72
2022/08/13 06:43:05;;;;;;;;;9.67;8.33;;;;;22.23;43.00;100877.69;5057793;28;46237;-72
2022/08/13 06:45:31;;;;;;;;;10.00;10.00;;;;;22.29;43.06;100869.38;5058976;28;46518;-73
2022/08/13 06:47:58;;;;;;;;;10.67;8.00;;;;;22.39;42.64;100874.09;5059157;28;46157;-72
2022/08/13 06:50:23;;;;;;;;;7.67;7.67;;;;;22.43;42.62;100869.84;5057718;28;45338;-72
2022/08/13 06:52:48;;;;;;;;;8.67;8.67;;;;;22.54;42.99;100865.34;5057966;28;45475;-72
2022/08/13 06:55:15;;;;;;;;;8.00;8.00;;;;;22.63;42.49;100865.75;5059076;28;45470;-73
2022/08/13 06:57:42;;;;;;;;;9.00;8.67;;;;;22.74;42.27;100876.72;5059139;28;45485;-72
2022/08/13 07:00:10;;;;;;;;;9.00;8.00;;;;;22.81;42.51;100870.03;5071266;28;45360;-72
2022/08/13 07:02:38;;;;;;;;;8.67;8.67;;;;;22.89;42.47;100865.22;5079221;28;45720;-72
2022/08/13 07:05:04;;;;;;;;;9.33;9.00;;;;;22.98;41.91;100871.81;5079526;28;47001;-74
2022/08/13 07:07:31;;;;;;;;;10.00;9.00;;;;;23.08;41.47;100873.84;5078874;28;45297;-72
2022/08/13 07:09:58;;;;;;;;;7.33;7.00;;;;;23.18;42.40;100873.09;5079738;28;45291;-72
2022/08/13 07:12:24;;;;;;;;;8.67;7.67;;;;;23.32;41.64;100870.81;5079161;28;45362;-72
2022/08/13 07:14:50;;;;;;;;;10.00;10.00;;;;;23.43;41.35;100877.16;5079198;28;46099;-72
2022/08/13 07:17:16;;;;;;;;;10.00;10.00;;;;;23.50;41.45;100872.34;5080783;27;45326;-72
2022/08/13 07:19:42;;;;;;;;;9.33;8.33;;;;;23.57;41.34;100872.94;5074672;28;45474;-73
2022/08/13 07:22:07;;;;;;;;;7.67;7.67;;;;;23.69;41.26;100886.34;5067675;28;46494;-72
2022/08/13 07:24:33;;;;;;;;;11.67;8.67;;;;;23.82;40.92;100881.53;5091012;27;52528;-72
2022/08/13 07:27:06;;;;;;;;;8.00;8.00;;;;;23.94;40.75;100879.44;5079348;28;45322;-73
2022/08/13 07:29:35;;;;;;;;;8.33;8.33;;;;;24.05;40.09;100874.91;5090519;27;45247;-72
2022/08/13 07:32:06;;;;;;;;;7.33;7.33;;;;;24.16;40.60;100875.00;5079108;28;45295;-72
2022/08/13 07:34:34;;;;;;;;;6.67;6.00;;;;;24.28;40.64;100883.75;5079278;27;45514;-73
2022/08/13 07:37:03;;;;;;;;;8.00;8.00;;;;;24.38;40.00;100882.16;5071761;28;45393;-74
2022/08/13 07:39:30;;;;;;;;;9.33;9.00;;;;;24.48;39.91;100876.75;5079325;27;45291;-73
2022/08/13 07:41:56;;;;;;;;;6.00;6.00;;;;;24.61;39.76;100885.50;5079465;28;45288;-74
2022/08/13 07:44:23;;;;;;;;;9.00;8.33;;;;;24.77;39.25;100889.09;5092794;27;48159;-73
2022/08/13 07:46:53;;;;;;;;;7.00;6.00;;;;;24.88;39.17;100889.97;5066881;28;45391;-73
2022/08/13 07:49:20;;;;;;;;;6.67;6.33;;;;;25.02;38.76;100887.56;5073435;28;45582;-73
2022/08/13 07:51:48;;;;;;;;;8.67;8.67;;;;;25.16;38.26;100887.84;5082849;27;46545;-73
2022/08/13 07:54:13;;;;;;;;;7.00;7.00;;;;;25.29;38.14;100892.75;5076928;28;47179;-73
2022/08/13 07:56:39;;;;;;;;;8.33;8.33;;;;;25.38;37.78;100879.44;5080601;28;45454;-77
2022/08/13 07:59:11;;;;;;;;;6.00;6.00;;;;;25.58;37.14;100894.13;5088762;28;45280;-74
2022/08/13 08:01:52;;;;;;;;;7.33;6.00;;;;;25.74;36.74;100883.28;5087257;27;47376;-74
2022/08/13 08:04:19;;;;;;;;;7.00;6.00;;;;;25.88;36.28;100889.00;5079299;28;45390;-74
2022/08/13 08:06:47;;;;;;;;;7.00;7.00;;;;;26.05;35.92;100897.66;5083855;28;45708;-75
2022/08/13 08:09:24;;;;;;;;;6.00;6.00;;;;;26.16;35.83;100887.53;5080920;28;45384;-75
2022/08/13 08:14:36;;;;;;;;;7.67;6.67;;;;;26.36;35.36;100883.16;5077722;28;45431;-80
2022/08/13 08:17:04;;;;;;;;;7.00;5.67;;;;;26.64;34.94;100902.69;5085358;27;45271;-79
2022/08/13 08:19:31;;;;;;;;;6.00;6.00;;;;;26.74;34.32;100893.63;5084094;28;45278;-81
2022/08/13 08:21:58;;;;;;;;;5.67;5.67;;;;;26.84;34.46;100893.56;5080464;28;45515;-80
2022/08/13 08:24:34;;;;;;;;;6.00;6.00;;;;;26.97;33.82;100896.78;5076530;28;48232;-81
2022/08/13 08:27:09;;;;;;;;;5.67;5.00;;;;;27.07;33.97;100896.75;5077878;27;45373;-82
2022/08/13 08:29:37;;;;;;;;;6.00;6.00;;;;;27.19;33.74;100898.28;5068943;28;45377;-81
2022/08/13 08:32:08;;;;;;;;;7.33;6.00;;;;;27.32;33.64;100905.00;5070817;28;45808;-81
2022/08/13 08:34:34;;;;;;;;;7.67;7.00;;;;;27.42;33.76;100904.13;5082449;27;45334;-80
2022/08/13 08:37:00;;;;;;;;;5.67;5.67;;;;;27.47;33.00;100899.44;5083217;28;45367;-82
2022/08/13 08:44:57;;;;;;;;;6.33;6.33;;;;;27.84;32.32;100916.34;5084833;28;45931;-81
2022/08/13 08:47:27;;;;;;;;;7.00;5.33;;;;;27.87;32.72;100900.50;5082735;27;45203;-82
2022/08/13 08:49:56;;;;;;;;;6.33;6.33;;;;;27.96;32.58;100904.25;5063620;28;45422;-82
2022/08/13 08:53:19;;;;;;;;;7.00;7.00;;;;;28.09;32.78;100909.00;5078379;28;45471;-80
2022/08/13 08:55:10;;;;;;;;;7.00;7.00;;;;;28.16;32.24;100899.66;5082047;27;45814;-83
2022/08/13 08:57:37;;;;;;;;;8.00;8.00;;;;;28.24;32.39;100899.00;5068537;28;45333;-79
2022/08/13 09:00:06;;;;;;;;;6.00;6.00;;;;;28.30;31.45;100900.63;5083480;27;45382;-83
2022/08/13 09:02:33;;;;;;;;;6.00;6.00;;;;;28.38;31.87;100899.16;5083689;28;45514;-77
2022/08/13 09:05:01;;;;;;;;;6.00;6.00;;;;;28.45;31.57;100907.81;5075261;28;45337;-78
2022/08/13 09:07:29;;;;;;;;;6.00;6.00;;;;;28.58;30.79;100902.75;5073036;28;45405;-78
2022/08/13 09:09:56;;;;;;;;;6.33;6.33;;;;;28.67;30.72;100909.16;5083764;28;45365;-81
2022/08/13 09:12:25;;;;;;;;;6.33;6.33;;;;;28.70;29.94;100894.91;5082207;28;45326;-80
2022/08/13 09:14:51;;;;;;;;;6.67;6.67;;;;;28.80;29.27;100902.19;5083218;28;45273;-79
2022/08/13 09:17:18;;;;;;;;;8.00;6.33;;;;;28.86;30.25;100897.44;5088033;27;45226;-78
2022/08/13 09:19:44;;;;;;;;;5.67;5.67;;;;;28.94;30.57;100899.53;5086748;28;45428;-76
2022/08/13 09:22:14;;;;;;;;;8.00;8.00;;;;;28.96;29.26;100893.78;5084730;28;45311;-77
2022/08/13 09:24:41;;;;;;;;;6.33;6.33;;;;;29.09;30.01;100900.44;5082146;28;45663;-77
2022/08/13 09:27:07;;;;;;;;;7.00;7.00;;;;;29.10;30.01;100882.91;5074115;28;45624;-78
2022/08/13 09:29:32;;;;;;;;;9.33;9.00;;;;;29.27;29.41;100893.28;5078054;28;45388;-79
2022/08/13 09:31:58;;;;;;;;;8.33;8.33;;;;;29.30;29.75;100883.69;5068997;28;45314;-81
2022/08/13 09:34:24;;;;;;;;;7.33;7.33;;;;;29.43;29.28;100885.66;5082491;28;45385;-78
2022/08/13 09:36:56;;;;;;;;;6.00;5.33;;;;;29.47;29.42;100883.13;5085102;28;45339;-77
2022/08/13 09:39:55;;;;;;;;;9.67;9.67;;;;;29.64;28.96;100890.81;5086469;28;45456;-78
2022/08/13 09:42:26;;;;;;;;;4.67;4.67;;;;;29.67;29.21;100887.47;5041227;28;45413;-81
2022/08/13 09:44:54;;;;;;;;;6.00;6.00;;;;;29.79;29.10;100881.50;5071313;28;46166;-79
2022/08/13 09:47:19;;;;;;;;;5.00;5.00;;;;;29.86;28.75;100894.78;5061886;28;45549;-79
2022/08/13 09:49:48;;;;;;;;;6.33;6.33;;;;;29.89;28.18;100883.25;5067332;28;45374;-82
2022/08/13 09:55:48;;;;;;;;;6.00;6.00;;;;;29.88;28.20;100859.72;5070386;28;45936;-78
2022/08/13 09:58:14;;;;;;;;;5.00;4.33;;;;;30.01;26.81;100858.09;5069644;28;45285;-78
2022/08/13 10:00:40;;;;;;;;;4.33;4.33;;;;;30.11;27.00;100859.81;5073859;27;45497;-77
2022/08/13 10:03:08;;;;;;;;;5.67;4.00;;;;;30.38;26.99;100890.28;5076171;27;45484;-82
2022/08/13 10:05:36;;;;;;;;;3.67;3.67;;;;;30.49;26.97;100877.97;5077804;28;45426;-80
2022/08/13 10:08:05;;;;;;;;;5.00;4.00;;;;;30.62;26.35;100876.34;5068872;28;45565;-79
2022/08/13 10:10:44;;;;;;;;;3.67;3.67;;;;;30.67;26.07;100862.50;5068602;28;45432;-78
2022/08/13 10:13:11;;;;;;;;;5.00;5.00;;;;;30.84;25.55;100861.88;5068777;28;45408;-77
2022/08/13 10:15:37;;;;;;;;;4.33;3.67;;;;;31.02;26.03;100878.47;5077552;27;46806;-82
2022/08/13 10:18:03;;;;;;;;;3.00;3.00;;;;;31.10;25.65;100874.19;5087696;27;45244;-82
2022/08/13 10:20:32;;;;;;;;;4.00;4.00;;;;;31.31;25.04;100881.91;5083194;27;45454;-79
2022/08/13 10:22:58;;;;;;;;;3.67;3.67;;;;;31.45;24.40;100877.16;5083307;28;45406;-79
2022/08/13 10:25:26;;;;;;;;;4.33;3.33;;;;;31.55;23.78;100873.38;5080832;28;45350;-77
2022/08/13 10:27:52;;;;;;;;;3.00;3.00;;;;;31.68;24.63;100879.88;5081946;28;45447;-78
2022/08/13 10:30:20;;;;;;;;;4.67;4.67;;;;;31.78;24.41;100870.53;5080016;28;45287;-77
2022/08/13 10:32:46;;;;;;;;;4.00;4.00;;;;;31.98;23.77;100882.94;5081647;28;45325;-79
2022/08/13 10:35:12;;;;;;;;;3.00;3.00;;;;;32.11;23.90;100870.22;5081594;27;45671;-79
2022/08/13 10:37:45;;;;;;;;;2.67;2.67;;;;;32.33;23.86;100876.75;5078120;28;45306;-80
2022/08/13 10:40:14;;;;;;;;;3.00;3.00;;;;;32.48;23.09;100874.66;5075619;28;45341;-80
2022/08/13 10:42:42;;;;;;;;;3.00;3.00;;;;;32.67;23.58;100868.06;5085528;28;45450;-80
2022/08/13 10:45:08;;;;;;;;;4.00;3.00;;;;;32.86;23.38;100876.81;5085998;28;46155;-80
2022/08/13 10:47:44;;;;;;;;;4.67;4.67;;;;;32.99;23.13;100866.78;5083550;28;45211;-78
2022/08/13 10:50:10;;;;;;;;;4.00;4.00;;;;;33.12;22.73;100865.03;5072936;28;45278;-77
2022/08/13 10:52:35;;;;;;;;;3.33;3.33;;;;;33.30;22.59;100864.97;5077812;28;45337;-78
2022/08/13 10:55:00;;;;;;;;;3.00;3.00;;;;;33.44;22.42;100859.28;5074674;28;45394;-82
2022/08/13 10:57:26;;;;;;;;;4.00;4.00;;;;;33.44;21.60;100844.69;5071175;28;45421;-77
2022/08/13 10:59:51;;;;;;;;;4.00;4.00;;;;;33.62;21.85;100854.56;5080425;28;45383;-85
2022/08/13 11:02:17;;;;;;;;;4.00;4.00;;;;;33.72;21.96;100847.03;5074272;28;45913;-81
2022/08/13 11:04:44;;;;;;;;;4.00;4.00;;;;;33.87;21.06;100856.72;5079775;28;46619;-80
2022/08/13 11:07:11;;;;;;;;;4.33;3.67;;;;;34.00;21.51;100852.91;5080397;28;45468;-84
2022/08/13 11:09:37;;;;;;;;;2.33;2.33;;;;;34.06;20.55;100848.03;5080152;27;45379;-82
2022/08/13 11:12:07;;;;;;;;;3.33;3.33;;;;;34.21;21.13;100862.41;5094583;27;46092;-79
2022/08/13 11:14:33;;;;;;;;;5.00;4.00;;;;;34.30;20.71;100845.81;5079336;28;47111;-80
2022/08/13 11:16:58;;;;;;;;;2.33;2.33;;;;;34.45;20.57;100849.91;5080302;27;45407;-81
2022/08/13 11:19:28;;;;;;;;;2.00;2.00;;;;;34.56;20.29;100839.28;5078666;28;45932;-74
2022/08/13 11:21:53;;;;;;;;;3.33;3.33;;;;;34.70;20.38;100864.69;5079593;28;45444;-74
2022/08/13 11:24:19;;;;;;;;;3.00;3.00;;;;;34.66;19.95;100847.19;5079677;27;45332;-74
2022/08/13 11:26:47;;;;;;;;;3.00;3.00;;;;;34.73;20.33;100855.72;5077848;27;45368;-74
2022/08/13 11:29:13;;;;;;;;;2.33;2.33;;;;;34.73;19.46;100850.22;5067068;27;45455;-74
2022/08/13 11:31:38;;;;;;;;;2.67;2.00;;;;;34.73;19.94;100844.69;5060196;28;45350;-74
2022/08/13 11:34:03;;;;;;;;;3.00;3.00;;;;;34.82;19.67;100855.66;5064224;28;45468;-74
2022/08/13 11:36:29;;;;;;;;;2.33;2.33;;;;;34.92;19.34;100842.56;5056563;28;45436;-74
2022/08/13 11:38:55;;;;;;;;;2.00;2.00;;;;;35.00;19.93;100831.44;5060306;28;45443;-75
2022/08/13 11:41:20;;;;;;;;;4.00;4.00;;;;;35.16;19.56;100841.03;5061200;28;45548;-75
2022/08/13 11:43:48;;;;;;;;;2.33;2.33;;;;;35.12;19.56;100838.97;5063612;28;46182;-74
2022/08/13 11:46:13;;;;;;;;;3.00;3.00;;;;;35.21;19.39;100843.59;5062655;28;45533;-75
2022/08/13 11:48:39;;;;;;;;;3.00;3.00;;;;;35.26;19.17;100832.34;5073555;28;45381;-76